createdAt,value
2023-04-22T00:02:42.495Z,98297.17
2023-04-22T00:05:17.189Z,98294.43
2023-04-22T00:07:52.666Z,98293.73
2023-04-22T00:10:24.776Z,98292.63
2023-04-22T00:12:57.686Z,98291.46
2023-04-22T00:15:29.738Z,98303.06
2023-04-22T00:18:02.284Z,98298.14
2023-04-22T00:20:34.493Z,98294.98
2023-04-22T00:23:06.633Z,98298.69
2023-04-22T00:25:38.776Z,98292.66
2023-04-22T00:28:11.333Z,98292.14
2023-04-22T00:30:43.444Z,98290.59
2023-04-22T00:33:16.076Z,98286.63
2023-04-22T00:35:48.928Z,98281.66
2023-04-22T00:38:21.589Z,98280.67
2023-04-22T00:40:53.666Z,98281.28
2023-04-22T00:43:25.892Z,98281.95
2023-04-22T00:45:59.857Z,98284.82
2023-04-22T00:48:33.462Z,98284.57
2023-04-22T00:51:06.362Z,98281.77
2023-04-22T00:53:38.457Z,98281.07
2023-04-22T00:56:12.717Z,98279.58
2023-04-22T00:58:45.478Z,98284.36
2023-04-22T01:01:18.100Z,98282.92
2023-04-22T01:03:51.399Z,98279.04
2023-04-22T01:06:26.603Z,98277.44
2023-04-22T01:08:59.396Z,98275.20
2023-04-22T01:11:32.140Z,98270.62
2023-04-22T01:14:06.386Z,98273.89
2023-04-22T01:16:43.630Z,98272.02
2023-04-22T01:19:16.296Z,98269.36
2023-04-22T01:21:51.678Z,98268.16
2023-04-22T01:24:27.066Z,98265.63
2023-04-22T01:27:02.379Z,98266.39
2023-04-22T01:29:35.012Z,98267.83
2023-04-22T01:32:07.728Z,98261.92
2023-04-22T01:34:39.968Z,98264.45
2023-04-22T01:37:12.055Z,98267.83
2023-04-22T01:39:45.069Z,98266.84
2023-04-22T01:42:17.773Z,98266.48
2023-04-22T01:44:50.673Z,98273.29
2023-04-22T01:47:22.779Z,98273.31
2023-04-22T01:49:54.946Z,98272.21
2023-04-22T01:52:27.746Z,98271.60
2023-04-22T01:55:01.667Z,98268.45
2023-04-22T01:57:33.740Z,98263.78
2023-04-22T02:00:09.495Z,98263.21
2023-04-22T02:02:44.676Z,98263.58
2023-04-22T02:05:17.209Z,98262.48
2023-04-22T02:07:54.642Z,98263.28
2023-04-22T02:10:27.160Z,98260.27
2023-04-22T02:12:59.420Z,98257.52
2023-04-22T02:15:34.572Z,98255.14
2023-04-22T02:18:06.994Z,98258.27
2023-04-22T02:20:39.906Z,98256.61
2023-04-22T02:23:12.575Z,98255.94
2023-04-22T02:25:51.572Z,98252.10
2023-04-22T02:28:24.449Z,98246.45
2023-04-22T02:30:56.769Z,98246.78
2023-04-22T02:33:29.326Z,98246.78
2023-04-22T02:36:01.726Z,98249.05
2023-04-22T02:38:37.939Z,98248.92
2023-04-22T02:41:10.111Z,98247.68
2023-04-22T02:43:46.098Z,98251.69
2023-04-22T02:46:18.791Z,98252.05
2023-04-22T02:48:50.958Z,98250.25
2023-04-22T02:51:23.127Z,98247.20
2023-04-22T02:53:55.490Z,98242.39
2023-04-22T02:56:27.846Z,98245.30
2023-04-22T02:59:00.014Z,98244.77
2023-04-22T03:01:32.366Z,98248.05
2023-04-22T03:04:06.290Z,98247.52
2023-04-22T03:06:38.824Z,98247.52
2023-04-22T03:09:11.121Z,98249.89
2023-04-22T03:11:43.161Z,98253.63
2023-04-22T03:14:15.446Z,98255.19
2023-04-22T03:16:47.675Z,98259.55
2023-04-22T03:19:20.399Z,98258.07
2023-04-22T03:21:53.091Z,98256.38
2023-04-22T03:24:25.527Z,98257.09
2023-04-22T03:26:57.754Z,98256.23
2023-04-22T03:29:29.939Z,98257.27
2023-04-22T03:32:02.128Z,98257.29
2023-04-22T03:34:35.851Z,98254.48
2023-04-22T03:37:10.698Z,98254.83
2023-04-22T03:39:42.952Z,98250.82
2023-04-22T03:42:16.755Z,98254.04
2023-04-22T03:44:49.088Z,98256.59
2023-04-22T03:47:22.314Z,98259.46
2023-04-22T03:50:00.960Z,98257.00
2023-04-22T03:52:36.820Z,98260.07
2023-04-22T03:55:10.006Z,98258.41
2023-04-22T03:57:42.430Z,98260.88
2023-04-22T04:00:16.008Z,98261.73
2023-04-22T04:02:49.120Z,98261.70
2023-04-22T04:05:23.308Z,98263.62
2023-04-22T04:07:56.691Z,98260.59
2023-04-22T04:10:29.212Z,98264.14
2023-04-22T04:13:01.390Z,98262.64
2023-04-22T04:15:36.957Z,98260.58
2023-04-22T04:18:09.761Z,98260.56
2023-04-22T04:20:42.219Z,98263.09
2023-04-22T04:23:14.740Z,98263.70
2023-04-22T04:25:47.946Z,98266.45
2023-04-22T04:28:20.671Z,98260.90
2023-04-22T04:30:53.886Z,98265.80
2023-04-22T04:33:26.099Z,98264.59
2023-04-22T04:35:58.542Z,98266.12
2023-04-22T04:38:34.791Z,98266.11
2023-04-22T04:41:09.761Z,98266.85
2023-04-22T04:43:42.092Z,98266.45
2023-04-22T04:46:21.192Z,98264.95
2023-04-22T04:48:54.123Z,98269.45
2023-04-22T04:51:27.918Z,98267.18
2023-04-22T04:54:02.437Z,98263.75
2023-04-22T04:56:39.080Z,98262.05
2023-04-22T04:59:14.769Z,98261.60
2023-04-22T05:01:47.457Z,98260.64
2023-04-22T05:04:20.514Z,98257.80
2023-04-22T05:06:53.385Z,98262.67
2023-04-22T05:09:25.830Z,98262.41
2023-04-22T05:11:57.932Z,98257.18
2023-04-22T05:14:30.705Z,98256.26
2023-04-22T05:17:03.935Z,98253.58
2023-04-22T05:19:36.046Z,98258.89
2023-04-22T05:22:08.522Z,98260.14
2023-04-22T05:24:40.649Z,98259.09
2023-04-22T05:27:14.308Z,98259.55
2023-04-22T05:29:46.509Z,98255.11
2023-04-22T05:32:21.971Z,98253.48
2023-04-22T05:34:54.142Z,98254.67
2023-04-22T05:37:27.310Z,98252.27
2023-04-22T05:39:59.682Z,98252.81
2023-04-22T05:42:32.736Z,98254.39
2023-04-22T05:45:07.250Z,98254.90
2023-04-22T05:47:39.220Z,98250.52
2023-04-22T05:50:12.745Z,98242.77
2023-04-22T05:53:02.504Z,98234.16
2023-04-22T05:55:35.675Z,98232.22
2023-04-22T05:58:08.121Z,98231.27
2023-04-22T06:00:54.077Z,98229.38
2023-04-22T06:04:01.590Z,98224.59
2023-04-22T06:06:34.716Z,98215.13
2023-04-22T06:09:07.253Z,98213.75
2023-04-22T06:11:40.529Z,98210.71
2023-04-22T06:14:13.172Z,98217.25
2023-04-22T06:16:50.449Z,98219.38
2023-04-22T06:19:22.580Z,98216.80
2023-04-22T06:21:54.697Z,98212.11
2023-04-22T06:24:33.709Z,98211.96
2023-04-22T06:27:05.969Z,98209.32
2023-04-22T06:29:38.172Z,98206.25
2023-04-22T06:35:23.328Z,98196.56
2023-04-22T06:37:55.642Z,98191.98
2023-04-22T06:40:29.798Z,98188.77
2023-04-22T06:43:22.036Z,98184.33
2023-04-22T06:46:23.253Z,98178.08
2023-04-22T06:49:28.541Z,98174.95
2023-04-22T06:52:19.223Z,98177.51
2023-04-22T06:54:51.298Z,98168.73
2023-04-22T06:57:23.653Z,98158.75
2023-04-22T06:59:55.774Z,98153.29
2023-04-22T07:02:31.461Z,98145.64
2023-04-22T07:05:04.065Z,98139.97
2023-04-22T07:07:36.703Z,98143.55
2023-04-22T07:10:10.880Z,98139.45
2023-04-22T07:12:51.106Z,98137.58
2023-04-22T07:15:23.252Z,98126.38
2023-04-22T07:17:55.384Z,98127.83
2023-04-22T07:20:27.568Z,98133.38
2023-04-22T07:22:59.685Z,98123.69
2023-04-22T07:25:31.828Z,98121.48
2023-04-22T07:28:04.222Z,98112.45
2023-04-22T07:30:36.372Z,98106.39
2023-04-22T07:33:08.788Z,98103.21
2023-04-22T07:35:41.110Z,98091.13
2023-04-22T07:38:14.626Z,98083.55
2023-04-22T07:40:50.576Z,98081.91
2023-04-22T07:43:25.994Z,98082.23
2023-04-22T07:45:58.117Z,98071.66
2023-04-22T07:48:30.144Z,98064.25
2023-04-22T07:51:02.103Z,98056.14
2023-04-22T07:53:36.149Z,98037.25
2023-04-22T07:56:08.493Z,98028.71
2023-04-22T07:58:40.528Z,98034.86
2023-04-22T08:01:12.584Z,98040.89
2023-04-22T08:03:46.341Z,98033.85
2023-04-22T08:06:18.988Z,98024.81
2023-04-22T08:08:51.333Z,98017.50
2023-04-22T08:11:23.292Z,98020.30
2023-04-22T08:13:55.285Z,98003.23
2023-04-22T08:16:27.447Z,97996.40
2023-04-22T08:18:59.803Z,97975.19
2023-04-22T08:21:31.868Z,97983.96
2023-04-22T08:24:03.879Z,97971.18
2023-04-22T08:26:36.919Z,97944.23
2023-04-22T08:29:09.032Z,97917.70
2023-04-22T08:31:41.363Z,97931.23
2023-04-22T08:34:13.382Z,97931.97
2023-04-22T08:36:45.593Z,97925.15
2023-04-22T08:39:17.788Z,97930.30
2023-04-22T08:41:50.224Z,97928.88
2023-04-22T08:44:23.154Z,97923.00
2023-04-22T08:46:57.170Z,97920.95
2023-04-22T08:49:31.176Z,97911.42
2023-04-22T08:52:05.507Z,97907.61
2023-04-22T08:54:37.925Z,97914.30
2023-04-22T08:57:11.740Z,97911.50
2023-04-22T08:59:44.374Z,97910.34
2023-04-22T09:02:18.508Z,97899.69
2023-04-22T09:04:52.034Z,97901.85
2023-04-22T09:07:26.599Z,97912.01
2023-04-22T09:09:59.665Z,97908.02
2023-04-22T09:12:31.742Z,97902.94
2023-04-22T09:15:05.457Z,97901.64
2023-04-22T09:17:39.313Z,97907.30
2023-04-22T09:20:13.094Z,97907.55
2023-04-22T09:22:48.574Z,97904.84
2023-04-22T09:25:22.543Z,97906.84
2023-04-22T09:27:55.904Z,97915.13
2023-04-22T09:30:32.613Z,97914.77
2023-04-22T09:33:07.162Z,97917.52
2023-04-22T09:35:41.188Z,97916.47
2023-04-22T09:38:14.592Z,97911.25
2023-04-22T09:40:47.260Z,97914.31
2023-04-22T09:43:21.051Z,97922.77
2023-04-22T09:45:53.890Z,97922.60
2023-04-22T09:48:26.348Z,97918.80
2023-04-22T09:50:58.383Z,97925.77
2023-04-22T09:53:30.387Z,97923.86
2023-04-22T09:56:07.257Z,97913.84
2023-04-22T09:58:44.303Z,97918.41
2023-04-22T10:01:16.529Z,97913.41
2023-04-22T10:03:48.665Z,97915.17
2023-04-22T10:06:21.533Z,97909.88
2023-04-22T10:08:53.736Z,97909.42
2023-04-22T10:11:25.835Z,97897.27
2023-04-22T10:13:58.469Z,97887.91
2023-04-22T10:16:35.150Z,97861.55
2023-04-22T10:19:09.966Z,97848.62
2023-04-22T10:21:45.891Z,97855.02
2023-04-22T10:24:21.806Z,97858.33
2023-04-22T10:27:12.205Z,97862.10
2023-04-22T10:29:43.485Z,97847.51
2023-04-22T10:32:28.979Z,97846.52
2023-04-22T10:35:16.497Z,97853.32
2023-04-22T10:37:49.374Z,97860.58
2023-04-22T10:40:22.826Z,97865.92
2023-04-22T10:43:03.634Z,97861.69
2023-04-22T10:45:36.731Z,97862.63
2023-04-22T10:48:08.789Z,97867.37
2023-04-22T10:50:41.167Z,97867.58
2023-04-22T10:53:40.960Z,97873.52
2023-04-22T10:56:21.176Z,97863.83
2023-04-22T10:58:54.010Z,97862.33
2023-04-22T11:01:29.044Z,97864.23
2023-04-22T11:04:23.793Z,97859.06
2023-04-22T11:07:32.057Z,97854.20
2023-04-22T11:10:16.094Z,97847.60
2023-04-22T11:12:50.891Z,97846.14
2023-04-22T11:15:24.930Z,97840.16
2023-04-22T11:17:57.673Z,97832.33
2023-04-22T11:20:30.566Z,97841.25
2023-04-22T11:23:03.762Z,97832.73
2023-04-22T11:25:36.252Z,97829.42
2023-04-22T11:28:08.798Z,97810.80
2023-04-22T11:30:40.935Z,97816.33
2023-04-22T11:33:17.327Z,97815.61
2023-04-22T11:38:58.980Z,97813.48
2023-04-22T11:41:31.817Z,97810.84
2023-04-22T11:44:04.389Z,97814.27
2023-04-22T11:46:39.592Z,97803.20
2023-04-22T11:49:19.654Z,97799.70
2023-04-22T11:51:58.864Z,97806.63
2023-04-22T11:54:38.288Z,97799.98
2023-04-22T11:57:15.544Z,97803.33
2023-04-22T11:59:58.069Z,97800.13
2023-04-22T12:02:30.406Z,97789.02
2023-04-22T12:05:03.680Z,97785.30
2023-04-22T12:07:35.926Z,97785.79
2023-04-22T12:10:12.826Z,97776.98
2023-04-22T12:12:44.988Z,97781.42
2023-04-22T12:15:18.722Z,97783.69
2023-04-22T12:17:52.996Z,97793.58
2023-04-22T12:20:25.101Z,97813.67
2023-04-22T12:22:58.839Z,97831.02
2023-04-22T12:25:33.781Z,97829.02
2023-04-22T12:28:05.952Z,97838.70
2023-04-22T12:30:38.094Z,97832.68
2023-04-22T12:33:10.836Z,97824.20
2023-04-22T12:35:42.902Z,97812.33
2023-04-22T12:38:14.945Z,97825.09
2023-04-22T12:40:47.199Z,97829.39
2023-04-22T12:43:19.986Z,97835.63
2023-04-22T12:45:52.087Z,97831.27
2023-04-22T12:48:24.157Z,97839.81
2023-04-22T12:50:58.786Z,97833.25
2023-04-22T12:53:31.064Z,97826.02
2023-04-22T12:56:03.528Z,97818.11
2023-04-22T12:58:35.487Z,97821.87
2023-04-22T13:01:07.790Z,97822.67
2023-04-22T13:03:39.907Z,97820.34
2023-04-22T13:06:12.103Z,97824.86
2023-04-22T13:08:44.243Z,97828.14
2023-04-22T13:11:16.309Z,97832.72
2023-04-22T13:13:48.358Z,97833.48
2023-04-22T13:16:21.316Z,97824.64
2023-04-22T13:18:53.420Z,97827.17
2023-04-22T13:21:25.484Z,97826.98
2023-04-22T13:23:57.540Z,97812.53
2023-04-22T13:26:29.688Z,97811.89
2023-04-22T13:29:02.918Z,97815.25
2023-04-22T13:31:35.307Z,97817.03
2023-04-22T13:37:19.348Z,97812.27
2023-04-22T13:39:51.398Z,97817.91
2023-04-22T13:42:23.724Z,97812.48
2023-04-22T13:44:55.859Z,97812.48
2023-04-22T13:47:27.860Z,97807.36
2023-04-22T13:50:00.948Z,97809.67
2023-04-22T13:52:33.009Z,97798.25
2023-04-22T13:55:05.953Z,97786.19
2023-04-22T13:57:40.775Z,97789.02
2023-04-22T14:00:15.024Z,97784.52
2023-04-22T14:02:47.856Z,97781.77
2023-04-22T14:05:20.040Z,97787.77
2023-04-22T14:07:52.142Z,97777.80
2023-04-22T14:10:27.881Z,97775.19
2023-04-22T14:13:00.813Z,97784.28
2023-04-22T14:15:32.987Z,97794.47
2023-04-22T14:18:05.621Z,97796.02
2023-04-22T14:20:37.599Z,97789.73
2023-04-22T14:23:09.696Z,97794.42
2023-04-22T14:25:46.939Z,97794.04
2023-04-22T14:28:19.165Z,97792.56
2023-04-22T14:30:51.279Z,97795.29
2023-04-22T14:33:26.933Z,97793.65
2023-04-22T14:35:59.575Z,97777.45
2023-04-22T14:38:35.362Z,97774.16
2023-04-22T14:41:07.563Z,97777.69
2023-04-22T14:43:39.825Z,97774.77
2023-04-22T14:46:11.973Z,97769.39
2023-04-22T14:48:45.759Z,97772.27
2023-04-22T14:51:17.880Z,97766.71
2023-04-22T14:53:50.291Z,97766.46
2023-04-22T14:56:25.061Z,97769.03
2023-04-22T14:58:57.141Z,97769.57
2023-04-22T15:01:29.323Z,97762.89
2023-04-22T15:04:01.606Z,97758.95
2023-04-22T15:06:33.823Z,97761.42
2023-04-22T15:09:05.988Z,97768.94
2023-04-22T15:11:38.157Z,97769.79
2023-04-22T15:14:10.456Z,97772.00
2023-04-22T15:16:42.669Z,97770.67
2023-04-22T15:19:14.939Z,97773.54
2023-04-22T15:21:47.285Z,97780.45
2023-04-22T15:24:20.085Z,97778.44
2023-04-22T15:26:52.877Z,97781.55
2023-04-22T15:29:25.391Z,97784.86
2023-04-22T15:31:58.055Z,97787.39
2023-04-22T15:37:40.195Z,97780.20
2023-04-22T15:40:12.914Z,97774.70
2023-04-22T15:42:45.385Z,97775.56
2023-04-22T15:45:20.149Z,97775.73
2023-04-22T15:47:54.451Z,97773.77
2023-04-22T15:50:26.716Z,97771.48
2023-04-22T15:52:58.916Z,97766.35
2023-04-22T15:55:30.972Z,97770.84
2023-04-22T15:58:03.129Z,97770.11
2023-04-22T16:00:35.551Z,97771.23
2023-04-22T16:03:10.704Z,97768.86
2023-04-22T16:05:43.029Z,97772.52
2023-04-22T16:08:15.142Z,97774.54
2023-04-22T16:10:47.258Z,97778.52
2023-04-22T16:13:19.578Z,97781.29
2023-04-22T16:15:51.722Z,97781.33
2023-04-22T16:18:23.916Z,97776.00
2023-04-22T16:20:55.976Z,97777.15
2023-04-22T16:23:28.127Z,97778.31
2023-04-22T16:26:04.585Z,97775.82
2023-04-22T16:28:36.701Z,97776.55
2023-04-22T16:31:11.336Z,97777.67
2023-04-22T16:33:43.530Z,97783.56
2023-04-22T16:36:16.307Z,97783.74
2023-04-22T16:38:48.446Z,97782.67
2023-04-22T16:41:21.162Z,97789.09
2023-04-22T16:43:53.397Z,97790.34
2023-04-22T16:46:25.585Z,97794.10
2023-04-22T16:48:57.824Z,97794.73
2023-04-22T16:51:30.007Z,97804.98
2023-04-22T16:54:02.091Z,97802.79
2023-04-22T16:56:34.110Z,97805.61
2023-04-22T16:59:06.749Z,97805.94
2023-04-22T17:01:39.828Z,97807.94
2023-04-22T17:04:12.413Z,97809.60
2023-04-22T17:06:45.913Z,97815.11
2023-04-22T17:09:18.112Z,97814.90
2023-04-22T17:11:50.318Z,97814.97
2023-04-22T17:14:22.852Z,97815.34
2023-04-22T17:16:54.960Z,97820.80
2023-04-22T17:19:28.014Z,97823.33
2023-04-22T17:22:01.840Z,97821.80
2023-04-22T17:24:34.304Z,97823.59
2023-04-22T17:27:08.815Z,97819.50
2023-04-22T17:29:41.382Z,97823.50
2023-04-22T17:32:13.952Z,97823.52
2023-04-22T17:34:46.099Z,97826.61
2023-04-22T17:37:18.186Z,97834.07
2023-04-22T17:39:50.739Z,97837.86
2023-04-22T17:44:55.996Z,97846.73
2023-04-22T17:47:30.927Z,97848.00
2023-04-22T17:50:03.036Z,97851.95
2023-04-22T17:52:35.222Z,97859.20
2023-04-22T17:55:08.645Z,97862.76
2023-04-22T17:57:42.086Z,97872.75
2023-04-22T18:00:17.606Z,97876.79
2023-04-22T18:02:50.322Z,97880.36
2023-04-22T18:05:24.718Z,97884.61
2023-04-22T18:08:00.835Z,97891.98
2023-04-22T18:10:33.246Z,97901.41
2023-04-22T18:13:08.257Z,97904.92
2023-04-22T18:15:43.575Z,97910.61
2023-04-22T18:18:17.236Z,97921.86
2023-04-22T18:20:53.115Z,97927.64
2023-04-22T18:23:25.232Z,97925.25
2023-04-22T18:25:57.751Z,97929.42
2023-04-22T18:28:32.791Z,97932.83
2023-04-22T18:31:05.587Z,97938.45
2023-04-22T18:33:40.767Z,97941.37
2023-04-22T18:36:13.935Z,97952.84
2023-04-22T18:38:46.487Z,97957.73
2023-04-22T18:41:18.773Z,97961.98
2023-04-22T18:47:05.104Z,97978.19
2023-04-22T18:49:41.148Z,97981.60
2023-04-22T18:52:13.408Z,97983.73
2023-04-22T18:54:48.473Z,97988.05
2023-04-22T18:57:25.927Z,97994.05
2023-04-22T19:00:00.937Z,97991.95
2023-04-22T19:02:35.546Z,98002.48
2023-04-22T19:05:14.674Z,98005.58
2023-04-22T19:07:46.933Z,98005.10
2023-04-22T19:10:19.763Z,98005.86
2023-04-22T19:12:52.737Z,98011.16
2023-04-22T19:15:24.983Z,98011.92
2023-04-22T19:17:57.229Z,98014.56
2023-04-22T19:20:32.854Z,98012.18
2023-04-22T19:23:07.674Z,98018.02
2023-04-22T19:25:40.394Z,98021.64
2023-04-22T19:28:13.195Z,98020.88
2023-04-22T19:30:46.211Z,98020.25
2023-04-22T19:33:21.497Z,98026.13
2023-04-22T19:35:56.207Z,98032.29
2023-04-22T19:38:28.347Z,98035.02
2023-04-22T19:41:02.470Z,98037.64
2023-04-22T19:43:36.480Z,98037.58
2023-04-22T19:46:09.012Z,98037.45
2023-04-22T19:48:42.182Z,98041.05
2023-04-22T19:51:15.029Z,98038.73
2023-04-22T19:53:48.077Z,98041.58
2023-04-22T19:56:20.973Z,98042.70
2023-04-22T19:58:53.219Z,98043.77
2023-04-22T20:01:26.075Z,98041.96
2023-04-22T20:03:59.588Z,98040.72
2023-04-22T20:06:32.892Z,98042.23
2023-04-22T20:09:06.280Z,98039.98
2023-04-22T20:11:38.661Z,98040.99
2023-04-22T20:14:13.927Z,98039.77
2023-04-22T20:16:48.257Z,98043.92
2023-04-22T20:19:20.888Z,98048.17
2023-04-22T20:21:55.366Z,98049.80
2023-04-22T20:24:28.936Z,98053.61
2023-04-22T20:27:01.029Z,98056.08
2023-04-22T20:29:33.882Z,98053.95
2023-04-22T20:32:07.143Z,98056.56
2023-04-22T20:34:40.284Z,98059.27
2023-04-22T20:37:13.640Z,98057.20
2023-04-22T20:39:46.796Z,98056.32
2023-04-22T20:42:19.306Z,98058.78
2023-04-22T20:44:51.533Z,98059.14
2023-04-22T20:47:23.838Z,98058.64
2023-04-22T20:49:56.399Z,98062.62
2023-04-22T20:52:28.551Z,98057.24
2023-04-22T20:55:01.938Z,98058.55
2023-04-22T20:57:34.040Z,98061.13
2023-04-22T21:00:07.771Z,98059.92
2023-04-22T21:02:41.230Z,98059.56
2023-04-22T21:05:14.915Z,98059.85
2023-04-22T21:07:48.395Z,98060.09
2023-04-22T21:10:25.385Z,98061.30
2023-04-22T21:12:59.372Z,98061.90
2023-04-22T21:15:32.919Z,98064.88
2023-04-22T21:18:07.866Z,98068.54
2023-04-22T21:20:46.539Z,98065.50
2023-04-22T21:23:20.441Z,98065.73
2023-04-22T21:25:55.148Z,98066.63
2023-04-22T21:28:28.184Z,98071.85
2023-04-22T21:31:01.565Z,98076.06
2023-04-22T21:33:38.877Z,98076.72
2023-04-22T21:36:36.686Z,98077.66
2023-04-22T21:39:12.440Z,98075.14
2023-04-22T21:41:44.785Z,98078.48
2023-04-22T21:44:22.943Z,98079.86
2023-04-22T21:46:55.875Z,98081.66
2023-04-22T21:49:31.279Z,98082.81
2023-04-22T21:52:06.721Z,98082.16
2023-04-22T21:54:42.092Z,98083.34
2023-04-22T21:57:15.071Z,98083.20
2023-04-22T21:59:49.574Z,98088.56
2023-04-22T22:02:22.380Z,98089.17
2023-04-22T22:04:54.679Z,98088.48
2023-04-22T22:07:30.581Z,98091.69
2023-04-22T22:10:03.635Z,98090.13
2023-04-22T22:12:36.066Z,98090.64
2023-04-22T22:15:10.217Z,98085.52
2023-04-22T22:17:46.116Z,98083.07
2023-04-22T22:20:21.364Z,98087.91
2023-04-22T22:22:53.574Z,98086.31
2023-04-22T22:25:26.037Z,98087.80
2023-04-22T22:27:58.299Z,98087.42
2023-04-22T22:30:31.297Z,98087.02
2023-04-22T22:33:04.713Z,98086.49
2023-04-22T22:35:36.993Z,98084.19
2023-04-22T22:38:09.271Z,98082.73
2023-04-22T22:40:41.504Z,98081.58
2023-04-22T22:43:14.608Z,98077.95
2023-04-22T22:45:46.815Z,98081.07
2023-04-22T22:48:19.046Z,98082.43
2023-04-22T22:50:51.315Z,98080.21
2023-04-22T22:53:23.736Z,98080.16
2023-04-22T22:55:55.907Z,98082.45
2023-04-22T22:58:28.367Z,98083.23
2023-04-22T23:01:00.797Z,98082.92
2023-04-22T23:03:33.852Z,98083.95
2023-04-22T23:06:10.334Z,98078.70
2023-04-22T23:08:42.526Z,98080.09
2023-04-22T23:11:14.946Z,98076.60
2023-04-22T23:13:47.943Z,98074.48
2023-04-22T23:16:20.304Z,98070.41
2023-04-22T23:18:53.437Z,98068.84
2023-04-22T23:21:27.528Z,98067.61
2023-04-22T23:24:03.846Z,98060.78
2023-04-22T23:26:37.754Z,98063.84
2023-04-22T23:29:11.166Z,98058.71
2023-04-22T23:31:45.500Z,98055.00
2023-04-22T23:34:20.885Z,98052.58
2023-04-22T23:36:54.091Z,98050.14
2023-04-22T23:39:27.625Z,98051.71
2023-04-22T23:41:59.863Z,98046.37
2023-04-22T23:44:32.158Z,98047.48
2023-04-22T23:47:04.694Z,98046.21
2023-04-22T23:49:37.168Z,98042.27
2023-04-22T23:52:11.116Z,98038.86
2023-04-22T23:54:47.824Z,98035.73
2023-04-22T23:57:24.217Z,98029.49
